createdAt,value
2023-04-14T00:02:24.764Z,2.00
2023-04-14T00:04:55.143Z,1.97
2023-04-14T00:07:22.381Z,1.70
2023-04-14T00:09:49.342Z,1.90
2023-04-14T00:12:16.435Z,2.20
2023-04-14T00:14:43.665Z,1.80
2023-04-14T00:17:11.384Z,1.83
2023-04-14T00:19:38.561Z,2.00
2023-04-14T00:22:05.725Z,2.00
2023-04-14T00:24:32.823Z,2.20
2023-04-14T00:26:59.869Z,2.00
2023-04-14T00:29:26.942Z,2.20
2023-04-14T00:31:53.980Z,2.40
2023-04-14T00:34:21.194Z,2.10
2023-04-14T00:36:48.252Z,2.00
2023-04-14T00:39:15.280Z,2.20
2023-04-14T00:41:43.346Z,2.10
2023-04-14T00:44:10.940Z,1.73
2023-04-14T00:46:39.750Z,2.10
2023-04-14T00:49:07.545Z,1.83
2023-04-14T00:51:36.046Z,2.00
2023-04-14T00:54:11.020Z,2.20
2023-04-14T00:56:39.396Z,2.23
2023-04-14T00:59:07.558Z,1.87
2023-04-14T01:01:38.212Z,2.20
2023-04-14T01:04:06.128Z,1.90
2023-04-14T01:06:33.971Z,2.13
2023-04-14T01:09:01.619Z,1.97
2023-04-14T01:12:14.674Z,2.20
2023-04-14T01:15:04.852Z,2.30
2023-04-14T01:17:34.940Z,2.60
2023-04-14T01:20:37.758Z,2.33
2023-04-14T01:23:27.686Z,2.30
2023-04-14T01:26:22.080Z,2.60
2023-04-14T01:29:19.769Z,2.27
2023-04-14T01:32:02.080Z,2.10
2023-04-14T01:34:43.075Z,2.40
2023-04-14T01:37:18.153Z,2.20
2023-04-14T01:39:53.940Z,1.93
2023-04-14T01:42:29.008Z,2.10
2023-04-14T01:45:02.447Z,1.90
2023-04-14T01:47:30.432Z,1.87
2023-04-14T01:49:59.464Z,2.23
2023-04-14T01:52:27.822Z,2.17
2023-04-14T01:54:57.128Z,1.77
2023-04-14T01:57:26.584Z,2.30
2023-04-14T01:59:59.556Z,1.90
2023-04-14T02:02:27.865Z,2.13
2023-04-14T02:04:57.763Z,2.00
2023-04-14T02:07:26.705Z,2.30
2023-04-14T02:09:56.017Z,1.93
2023-04-14T02:12:26.593Z,1.90
2023-04-14T02:14:55.034Z,2.80
2023-04-14T02:17:22.636Z,2.30
2023-04-14T02:19:51.283Z,1.90
2023-04-14T02:22:18.308Z,2.10
2023-04-14T02:24:47.788Z,1.83
2023-04-14T02:27:33.441Z,2.17
2023-04-14T02:30:12.601Z,2.40
2023-04-14T02:32:49.698Z,2.30
2023-04-14T02:35:27.165Z,2.50
2023-04-14T02:38:08.355Z,2.30
2023-04-14T02:40:41.439Z,2.67
2023-04-14T02:43:28.739Z,2.80
2023-04-14T02:45:56.934Z,2.53
2023-04-14T02:48:27.200Z,2.43
2023-04-14T02:50:56.831Z,2.40
2023-04-14T02:53:25.567Z,2.57
2023-04-14T02:55:52.616Z,2.40
2023-04-14T02:58:21.136Z,2.43
2023-04-14T03:00:50.273Z,2.53
2023-04-14T03:03:18.758Z,2.43
2023-04-14T03:05:47.178Z,2.70
2023-04-14T03:08:16.842Z,3.00
2023-04-14T03:10:48.995Z,2.77
2023-04-14T03:13:18.815Z,2.90
2023-04-14T03:15:46.834Z,2.80
2023-04-14T03:18:15.904Z,2.70
2023-04-14T03:20:45.870Z,2.83
2023-04-14T03:23:13.897Z,2.40
2023-04-14T03:25:41.717Z,2.47
2023-04-14T03:28:16.188Z,3.13
2023-04-14T03:30:49.366Z,3.03
2023-04-14T03:33:22.919Z,2.47
2023-04-14T03:35:53.409Z,2.90
2023-04-14T03:38:21.521Z,2.60
2023-04-14T03:40:50.460Z,2.90
2023-04-14T03:43:20.327Z,2.70
2023-04-14T03:45:49.406Z,3.03
2023-04-14T03:48:19.597Z,3.00
2023-04-14T03:50:51.587Z,2.70
2023-04-14T03:53:21.342Z,3.20
2023-04-14T03:55:51.645Z,3.17
2023-04-14T03:58:20.430Z,2.70
2023-04-14T04:00:48.793Z,2.80
2023-04-14T04:03:16.703Z,2.80
2023-04-14T04:05:44.747Z,2.67
2023-04-14T04:08:12.731Z,2.50
2023-04-14T04:10:42.811Z,2.93
2023-04-14T04:13:16.660Z,3.07
2023-04-14T04:15:45.492Z,3.30
2023-04-14T04:18:17.032Z,3.37
2023-04-14T04:20:46.229Z,3.10
2023-04-14T04:23:15.693Z,2.80
2023-04-14T04:25:43.007Z,2.83
2023-04-14T04:28:10.314Z,3.03
2023-04-14T04:30:42.912Z,2.90
2023-04-14T04:33:11.568Z,3.33
2023-04-14T04:35:41.211Z,3.20
2023-04-14T04:38:11.380Z,3.20
2023-04-14T04:40:39.209Z,3.10
2023-04-14T04:43:06.225Z,3.47
2023-04-14T04:45:59.905Z,3.40
2023-04-14T04:48:26.977Z,3.00
2023-04-14T04:50:54.177Z,2.73
2023-04-14T04:53:21.197Z,3.30
2023-04-14T04:55:48.206Z,3.00
2023-04-14T04:58:15.271Z,3.23
2023-04-14T05:00:43.528Z,2.90
2023-04-14T05:03:10.735Z,3.00
2023-04-14T05:05:38.002Z,3.53
2023-04-14T05:08:06.003Z,3.30
2023-04-14T05:10:37.254Z,4.43
2023-04-14T05:13:04.337Z,2.53
2023-04-14T05:15:31.868Z,3.30
2023-04-14T05:17:59.318Z,3.30
2023-04-14T05:20:26.973Z,3.20
2023-04-14T05:22:54.002Z,3.10
2023-04-14T05:25:21.484Z,3.30
2023-04-14T05:27:48.513Z,3.50
2023-04-14T05:30:15.830Z,2.93
2023-04-14T05:32:42.884Z,3.70
2023-04-14T05:35:10.000Z,3.10
2023-04-14T05:37:37.059Z,3.93
2023-04-14T05:40:05.161Z,7.10
2023-04-14T05:42:32.192Z,7.87
2023-04-14T05:44:59.290Z,5.47
2023-04-14T05:47:26.440Z,5.07
2023-04-14T05:49:53.638Z,5.17
2023-04-14T05:52:20.690Z,5.23
2023-04-14T05:54:47.689Z,5.97
2023-04-14T05:57:14.741Z,6.33
2023-04-14T05:59:42.480Z,4.57
2023-04-14T06:02:09.741Z,4.17
2023-04-14T06:04:37.022Z,4.13
2023-04-14T06:07:04.331Z,4.00
2023-04-14T06:09:31.822Z,3.47
2023-04-14T06:11:58.926Z,3.40
2023-04-14T06:14:25.952Z,3.30
2023-04-14T06:16:55.500Z,3.23
2023-04-14T06:19:23.044Z,3.03
2023-04-14T06:21:50.302Z,3.10
2023-04-14T06:24:17.473Z,3.13
2023-04-14T06:26:44.617Z,3.17
2023-04-14T06:29:12.058Z,3.03
2023-04-14T06:31:39.286Z,3.30
2023-04-14T06:34:06.550Z,3.10
2023-04-14T06:36:33.884Z,2.90
2023-04-14T06:39:01.568Z,2.90
2023-04-14T06:41:29.216Z,3.33
2023-04-14T06:43:56.598Z,2.47
2023-04-14T06:46:23.684Z,2.67
2023-04-14T06:48:51.114Z,2.57
2023-04-14T06:51:18.979Z,2.57
2023-04-14T06:53:46.236Z,2.50
2023-04-14T06:56:13.497Z,2.90
2023-04-14T06:58:41.231Z,2.77
2023-04-14T07:01:08.389Z,3.27
2023-04-14T07:03:36.058Z,3.27
2023-04-14T07:06:11.965Z,3.60
2023-04-14T07:08:40.756Z,2.50
2023-04-14T07:11:11.028Z,2.97
2023-04-14T07:13:40.606Z,2.90
2023-04-14T07:16:08.759Z,2.60
2023-04-14T07:18:36.604Z,2.83
2023-04-14T07:21:03.862Z,3.07
2023-04-14T07:23:31.620Z,2.03
2023-04-14T07:26:00.714Z,2.55
2023-04-14T07:28:28.462Z,3.00
2023-04-14T07:30:55.793Z,2.90
2023-04-14T07:33:23.033Z,2.28
2023-04-14T07:36:02.103Z,2.47
2023-04-14T07:38:33.256Z,3.30
2023-04-14T07:41:04.026Z,2.95
2023-04-14T07:43:37.448Z,2.33
2023-04-14T07:46:07.187Z,2.30
2023-04-14T07:48:36.885Z,2.28
2023-04-14T07:51:05.807Z,1.58
2023-04-14T07:53:34.018Z,1.55
2023-04-14T07:56:01.147Z,1.92
2023-04-14T07:58:29.546Z,1.65
2023-04-14T08:00:57.397Z,2.13
2023-04-14T08:03:24.676Z,1.63
2023-04-14T08:05:52.477Z,1.60
2023-04-14T08:08:19.685Z,1.50
2023-04-14T08:10:46.835Z,1.30
2023-04-14T08:13:13.889Z,1.48
2023-04-14T08:15:41.097Z,1.65
2023-04-14T08:18:08.314Z,1.60
2023-04-14T08:20:35.426Z,1.00
2023-04-14T08:23:02.650Z,1.13
2023-04-14T08:25:29.716Z,1.50
2023-04-14T08:27:56.692Z,1.60
2023-04-14T08:30:24.774Z,1.73
2023-04-14T08:32:52.209Z,1.60
2023-04-14T08:35:38.942Z,1.00
2023-04-14T08:38:06.385Z,1.67
2023-04-14T08:40:41.032Z,1.25
2023-04-14T08:43:08.420Z,1.20
2023-04-14T08:45:36.797Z,1.05
2023-04-14T08:48:06.098Z,1.10
2023-04-14T08:50:43.176Z,1.52
2023-04-14T08:53:12.662Z,1.27
2023-04-14T08:55:43.584Z,1.50
2023-04-14T08:58:11.291Z,1.20
2023-04-14T09:00:40.308Z,1.30
2023-04-14T09:03:09.481Z,1.17
2023-04-14T09:05:37.862Z,1.50
2023-04-14T09:08:05.241Z,1.45
2023-04-14T09:10:32.468Z,1.58
2023-04-14T09:13:01.419Z,1.30
2023-04-14T09:15:29.220Z,1.52
2023-04-14T09:17:57.281Z,1.48
2023-04-14T09:20:37.906Z,1.20
2023-04-14T09:23:10.178Z,1.40
2023-04-14T09:25:39.806Z,1.05
2023-04-14T09:28:07.370Z,1.25
2023-04-14T09:30:35.053Z,1.50
2023-04-14T09:33:07.490Z,1.17
2023-04-14T09:35:47.670Z,1.08
2023-04-14T09:38:17.083Z,1.13
2023-04-14T09:40:45.034Z,1.10
2023-04-14T09:43:27.413Z,1.17
2023-04-14T09:45:56.149Z,1.45
2023-04-14T09:48:24.366Z,1.55
2023-04-14T09:51:07.322Z,1.50
2023-04-14T09:53:37.806Z,1.60
2023-04-14T09:56:11.882Z,1.13
2023-04-14T09:58:42.986Z,1.13
2023-04-14T10:01:20.707Z,1.13
2023-04-14T10:03:50.083Z,1.30
2023-04-14T10:06:20.144Z,1.42
2023-04-14T10:08:49.486Z,1.40
2023-04-14T10:11:20.427Z,1.52
2023-04-14T10:14:00.933Z,1.15
2023-04-14T10:16:28.264Z,1.05
2023-04-14T10:18:57.560Z,1.27
2023-04-14T10:21:26.177Z,1.25
2023-04-14T10:23:55.582Z,1.00
2023-04-14T10:26:22.791Z,0.93
2023-04-14T10:28:53.117Z,1.20
2023-04-14T10:31:34.982Z,1.13
2023-04-14T10:34:13.270Z,1.00
2023-04-14T10:36:40.840Z,1.50
2023-04-14T10:39:10.380Z,1.20
2023-04-14T10:41:52.040Z,1.23
2023-04-14T10:44:36.129Z,1.27
2023-04-14T10:47:08.370Z,1.15
2023-04-14T10:49:38.394Z,1.20
2023-04-14T10:52:27.568Z,1.20
2023-04-14T10:55:08.149Z,1.50
2023-04-14T10:57:45.844Z,1.20
2023-04-14T11:00:25.239Z,1.08
2023-04-14T11:03:08.330Z,0.95
2023-04-14T11:05:41.866Z,1.15
2023-04-14T11:08:36.226Z,1.00
2023-04-14T11:11:06.045Z,1.30
2023-04-14T11:13:34.975Z,1.38
2023-04-14T11:16:09.591Z,0.90
2023-04-14T11:18:46.875Z,0.88
2023-04-14T11:21:19.397Z,1.00
2023-04-14T11:23:50.916Z,1.13
2023-04-14T11:26:18.510Z,1.58
2023-04-14T11:28:48.661Z,1.45
2023-04-14T11:31:27.659Z,0.90
2023-04-14T11:33:54.907Z,1.10
2023-04-14T11:36:24.966Z,1.20
2023-04-14T11:38:52.383Z,1.10
2023-04-14T11:41:21.615Z,1.15
2023-04-14T11:43:48.897Z,1.10
2023-04-14T11:46:19.367Z,1.10
2023-04-14T11:48:46.521Z,1.35
2023-04-14T11:51:14.031Z,0.98
2023-04-14T11:53:43.273Z,0.90
2023-04-14T11:56:12.822Z,0.85
2023-04-14T11:58:40.044Z,1.30
2023-04-14T12:01:07.115Z,1.02
2023-04-14T12:03:36.837Z,0.90
2023-04-14T12:06:04.648Z,0.88
2023-04-14T12:08:32.898Z,1.00
2023-04-14T12:11:15.763Z,0.85
2023-04-14T12:13:45.015Z,1.10
2023-04-14T12:16:13.044Z,1.02
2023-04-14T12:18:40.814Z,1.08
2023-04-14T12:21:10.880Z,1.20
2023-04-14T12:23:40.894Z,0.80
2023-04-14T12:26:12.385Z,1.05
2023-04-14T12:28:41.891Z,0.80
2023-04-14T12:31:10.462Z,0.95
2023-04-14T12:33:37.756Z,1.00
2023-04-14T12:36:13.186Z,1.05
2023-04-14T12:38:40.397Z,0.77
2023-04-14T12:41:07.565Z,1.02
2023-04-14T12:43:37.795Z,0.90
2023-04-14T12:46:05.892Z,1.25
2023-04-14T12:48:48.428Z,1.08
2023-04-14T12:51:20.641Z,0.77
2023-04-14T12:53:50.506Z,1.10
2023-04-14T12:56:22.334Z,0.80
2023-04-14T12:58:51.338Z,0.90
2023-04-14T13:01:22.584Z,1.30
2023-04-14T13:03:52.577Z,1.05
2023-04-14T13:06:23.098Z,0.90
2023-04-14T13:08:53.124Z,0.80
2023-04-14T13:11:22.544Z,0.80
2023-04-14T13:13:51.088Z,0.90
2023-04-14T13:16:18.681Z,0.90
2023-04-14T13:18:47.595Z,1.00
2023-04-14T13:21:15.438Z,0.80
2023-04-14T13:23:42.760Z,1.10
2023-04-14T13:26:10.588Z,1.00
2023-04-14T13:28:37.873Z,1.05
2023-04-14T13:31:05.152Z,0.80
2023-04-14T13:33:33.273Z,0.77
2023-04-14T13:36:03.087Z,1.00
2023-04-14T13:38:31.087Z,1.20
2023-04-14T13:40:58.435Z,0.85
2023-04-14T13:43:26.252Z,1.10
2023-04-14T13:45:56.914Z,1.00
2023-04-14T13:48:24.108Z,0.88
2023-04-14T13:50:52.502Z,0.90
2023-04-14T13:53:19.926Z,1.20
2023-04-14T13:55:47.077Z,0.70
2023-04-14T13:58:14.410Z,1.17
2023-04-14T14:00:41.714Z,0.90
2023-04-14T14:03:08.966Z,1.00
2023-04-14T14:05:36.171Z,0.90
2023-04-14T14:08:03.727Z,1.00
2023-04-14T14:10:30.978Z,0.77
2023-04-14T14:12:58.063Z,1.00
2023-04-14T14:15:25.855Z,0.65
2023-04-14T14:17:55.798Z,0.90
2023-04-14T14:20:22.758Z,1.13
2023-04-14T14:22:49.800Z,0.93
2023-04-14T14:25:20.106Z,1.10
2023-04-14T14:27:48.376Z,0.80
2023-04-14T14:30:15.835Z,0.73
2023-04-14T14:32:43.107Z,0.65
2023-04-14T14:35:10.490Z,1.00
2023-04-14T14:37:37.792Z,0.98
2023-04-14T14:40:05.852Z,0.93
2023-04-14T14:42:33.160Z,0.77
2023-04-14T14:45:00.917Z,1.23
2023-04-14T14:47:29.006Z,1.00
2023-04-14T14:50:02.944Z,0.80
2023-04-14T14:52:32.839Z,1.30
2023-04-14T14:54:59.970Z,0.90
2023-04-14T14:57:27.469Z,1.05
2023-04-14T14:59:54.624Z,0.80
2023-04-14T15:02:22.561Z,0.70
2023-04-14T15:04:50.053Z,0.70
2023-04-14T15:07:18.044Z,0.60
2023-04-14T15:09:49.878Z,0.80
2023-04-14T15:12:17.620Z,1.20
2023-04-14T15:14:44.827Z,0.90
2023-04-14T15:17:11.862Z,0.68
2023-04-14T15:19:39.084Z,0.60
2023-04-14T15:22:06.438Z,0.80
2023-04-14T15:24:33.861Z,0.80
2023-04-14T15:27:02.527Z,0.90
2023-04-14T15:29:30.528Z,1.10
2023-04-14T15:31:57.650Z,0.73
2023-04-14T15:34:25.321Z,0.90
2023-04-14T15:36:52.423Z,0.73
2023-04-14T15:39:19.524Z,0.80
2023-04-14T15:41:47.738Z,0.80
2023-04-14T15:44:16.610Z,1.00
2023-04-14T15:46:43.709Z,1.23
2023-04-14T15:49:10.946Z,0.98
2023-04-14T15:51:38.039Z,0.90
2023-04-14T15:54:05.273Z,1.00
2023-04-14T15:56:32.354Z,0.70
2023-04-14T15:58:59.345Z,0.70
2023-04-14T16:01:26.507Z,0.90
2023-04-14T16:03:53.979Z,0.90
2023-04-14T16:06:21.574Z,0.85
2023-04-14T16:08:48.621Z,1.35
2023-04-14T16:11:16.568Z,1.15
2023-04-14T16:13:44.105Z,0.85
2023-04-14T16:16:14.213Z,0.95
2023-04-14T16:18:42.407Z,1.15
2023-04-14T16:21:09.690Z,0.95
2023-04-14T16:23:36.872Z,0.82
2023-04-14T16:26:04.188Z,0.80
2023-04-14T16:28:31.757Z,0.90
2023-04-14T16:31:05.370Z,0.93
2023-04-14T16:33:32.825Z,1.45
2023-04-14T16:36:07.765Z,1.00
2023-04-14T16:38:37.621Z,0.95
2023-04-14T16:41:04.727Z,1.08
2023-04-14T16:43:31.952Z,1.10
2023-04-14T16:46:04.175Z,1.02
2023-04-14T16:48:32.637Z,0.93
2023-04-14T16:51:10.907Z,1.17
2023-04-14T16:53:39.029Z,1.00
2023-04-14T16:56:10.513Z,1.00
2023-04-14T16:58:39.038Z,1.13
2023-04-14T17:01:06.907Z,1.00
2023-04-14T17:03:36.164Z,1.38
2023-04-14T17:06:04.066Z,1.75
2023-04-14T17:08:31.196Z,1.38
2023-04-14T17:10:58.607Z,1.50
2023-04-14T17:13:26.918Z,1.15
2023-04-14T17:16:02.449Z,1.40
2023-04-14T17:18:35.610Z,1.10
2023-04-14T17:21:03.347Z,0.90
2023-04-14T17:23:30.564Z,1.05
2023-04-14T17:25:58.771Z,1.23
2023-04-14T17:28:27.276Z,1.00
2023-04-14T17:30:54.364Z,1.23
2023-04-14T17:33:22.162Z,1.35
2023-04-14T17:35:49.260Z,1.33
2023-04-14T17:38:16.335Z,1.50
2023-04-14T17:40:43.455Z,1.30
2023-04-14T17:43:10.726Z,1.10
2023-04-14T17:45:39.922Z,1.30
2023-04-14T17:48:07.571Z,1.20
2023-04-14T17:50:36.004Z,1.50
2023-04-14T17:53:03.111Z,1.30
2023-04-14T17:55:30.197Z,1.60
2023-04-14T17:57:57.883Z,1.50
2023-04-14T18:00:24.939Z,1.45
2023-04-14T18:02:52.661Z,1.20
2023-04-14T18:05:19.960Z,1.13
2023-04-14T18:07:47.076Z,1.25
2023-04-14T18:10:14.310Z,1.17
2023-04-14T18:12:41.815Z,1.30
2023-04-14T18:15:15.190Z,1.30
2023-04-14T18:17:43.634Z,1.30
2023-04-14T18:20:12.337Z,1.40
2023-04-14T18:22:39.520Z,1.25
2023-04-14T18:25:08.360Z,1.20
2023-04-14T18:30:07.281Z,1.17
2023-04-14T18:32:34.551Z,1.33
2023-04-14T18:35:01.677Z,1.45
2023-04-14T18:37:28.951Z,1.08
2023-04-14T18:39:56.776Z,1.20
2023-04-14T18:42:23.955Z,1.10
2023-04-14T18:44:51.802Z,1.33
2023-04-14T18:47:19.691Z,1.80
2023-04-14T18:49:47.021Z,2.03
2023-04-14T18:52:14.029Z,1.52
2023-04-14T18:54:41.202Z,1.80
2023-04-14T18:57:08.371Z,1.80
2023-04-14T18:59:36.288Z,1.90
2023-04-14T19:02:04.559Z,2.35
2023-04-14T19:04:31.770Z,2.10
2023-04-14T19:06:58.854Z,2.20
2023-04-14T19:09:27.504Z,2.03
2023-04-14T19:11:55.639Z,2.33
2023-04-14T19:14:23.258Z,2.58
2023-04-14T19:16:50.315Z,3.38
2023-04-14T19:19:17.275Z,3.60
2023-04-14T19:21:44.447Z,3.28
2023-04-14T19:24:11.863Z,5.50
2023-04-14T19:26:41.014Z,5.78
2023-04-14T19:29:08.151Z,6.03
2023-04-14T19:31:35.469Z,7.03
2023-04-14T19:34:02.745Z,7.40
2023-04-14T19:36:32.277Z,7.70
2023-04-14T19:38:59.768Z,8.15
2023-04-14T19:41:27.431Z,7.25
2023-04-14T19:43:54.459Z,7.88
2023-04-14T19:46:21.805Z,7.30
2023-04-14T19:48:49.416Z,7.22
2023-04-14T19:51:16.383Z,6.55
2023-04-14T19:53:44.215Z,7.35
2023-04-14T19:56:11.694Z,6.97
2023-04-14T19:58:38.648Z,7.13
2023-04-14T20:01:05.817Z,6.45
2023-04-14T20:03:34.488Z,6.95
2023-04-14T20:06:02.183Z,6.45
2023-04-14T20:08:30.549Z,6.97
2023-04-14T20:10:57.755Z,6.82
2023-04-14T20:13:27.745Z,6.65
2023-04-14T20:15:55.314Z,7.68
2023-04-14T20:18:22.752Z,7.60
2023-04-14T20:20:50.398Z,8.30
2023-04-14T20:23:17.784Z,8.45
2023-04-14T20:25:45.893Z,9.23
2023-04-14T20:28:15.413Z,9.02
2023-04-14T20:30:48.200Z,8.57
2023-04-14T20:33:21.501Z,7.70
2023-04-14T20:35:51.556Z,7.65
2023-04-14T20:38:18.941Z,7.15
2023-04-14T20:40:46.200Z,6.50
2023-04-14T20:43:13.215Z,5.70
2023-04-14T20:45:40.563Z,6.32
2023-04-14T20:48:08.007Z,6.47
2023-04-14T20:50:35.205Z,5.93
2023-04-14T20:53:02.245Z,6.03
2023-04-14T20:55:32.543Z,5.80
2023-04-14T20:57:59.962Z,5.65
2023-04-14T21:00:27.019Z,5.22
2023-04-14T21:02:54.449Z,5.45
2023-04-14T21:05:22.075Z,5.40
2023-04-14T21:07:49.563Z,5.10
2023-04-14T21:10:16.646Z,5.63
2023-04-14T21:15:06.434Z,5.40
2023-04-14T21:15:48.584Z,5.55
2023-04-14T21:18:19.133Z,5.97
2023-04-14T21:20:46.389Z,4.93
2023-04-14T21:23:13.663Z,5.10
2023-04-14T21:25:41.018Z,5.22
2023-04-14T21:28:08.697Z,5.20
2023-04-14T21:30:36.057Z,4.78
2023-04-14T21:33:06.927Z,4.93
2023-04-14T21:35:35.730Z,5.20
2023-04-14T21:38:03.485Z,5.88
2023-04-14T21:40:30.941Z,5.72
2023-04-14T21:42:58.208Z,5.22
2023-04-14T21:45:27.044Z,5.10
2023-04-14T21:47:54.189Z,4.90
2023-04-14T21:50:21.692Z,4.15
2023-04-14T21:52:48.669Z,4.82
2023-04-14T21:55:16.389Z,4.63
2023-04-14T21:57:49.353Z,4.63
2023-04-14T22:00:20.325Z,4.70
2023-04-14T22:02:47.927Z,4.05
2023-04-14T22:05:15.874Z,3.63
2023-04-14T22:07:42.988Z,4.07
2023-04-14T22:10:10.424Z,4.03
2023-04-14T22:12:39.727Z,4.00
2023-04-14T22:15:10.558Z,3.77
2023-04-14T22:17:41.571Z,3.80
2023-04-14T22:20:09.863Z,4.25
2023-04-14T22:22:37.255Z,4.18
2023-04-14T22:25:04.999Z,3.57
2023-04-14T22:27:33.880Z,3.67
2023-04-14T22:30:02.052Z,4.25
2023-04-14T22:32:29.301Z,3.50
2023-04-14T22:34:56.534Z,3.30
2023-04-14T22:37:23.752Z,3.13
2023-04-14T22:39:50.895Z,3.42
2023-04-14T22:42:18.064Z,3.17
2023-04-14T22:44:45.277Z,2.77
2023-04-14T22:47:12.468Z,3.37
2023-04-14T22:49:39.536Z,2.70
2023-04-14T22:52:06.751Z,2.70
2023-04-14T22:54:33.785Z,2.87
2023-04-14T22:57:01.316Z,2.90
2023-04-14T22:59:28.315Z,3.30
2023-04-14T23:01:55.842Z,3.20
2023-04-14T23:04:23.056Z,2.55
2023-04-14T23:06:50.140Z,2.97
2023-04-14T23:09:17.136Z,2.80
2023-04-14T23:11:44.354Z,3.13
2023-04-14T23:14:11.573Z,3.50
2023-04-14T23:16:39.099Z,2.90
2023-04-14T23:19:06.987Z,2.87
2023-04-14T23:21:34.720Z,3.10
2023-04-14T23:24:02.030Z,3.30
2023-04-14T23:26:29.529Z,3.00
2023-04-14T23:28:56.760Z,3.00
2023-04-14T23:31:23.949Z,3.10
2023-04-14T23:33:52.827Z,3.10
2023-04-14T23:36:20.456Z,3.13
2023-04-14T23:38:47.507Z,3.20
2023-04-14T23:41:14.641Z,3.40
2023-04-14T23:43:41.740Z,2.97
2023-04-14T23:46:08.804Z,3.30
2023-04-14T23:48:36.021Z,2.77
2023-04-14T23:51:17.904Z,3.03
2023-04-14T23:53:49.409Z,3.13
2023-04-14T23:56:16.635Z,3.23
2023-04-14T23:58:44.544Z,3.20
